Centre Harbor, New Hampshire
Current Conditions -  °F | °C
As of 6:35 AM on Thursday 18 Dec 2014 (Local Time) from KLCI Reporting Station
Overcast Overcast  
Wind Chill: 31°   Ceiling: 3200
Heat Index: 37°   Visibility: 10mi
Dew Point: 30°   Wind: 9mph
Humidity: 75%   Direction: 270°W
Pressure: 29.67"   Gusts: NA
Location:  43.7121°N, 71.4886°W
Report Text: KLCI 181135Z AUTO 27008KT 10SM BKN032 BKN040 OVC047 03/M01 A2967 RMK AO1
Loading
Personal Weather Stations






























Interactive Weather Map New forecast layout! Learn more

10-Day Weather Forecast

Advertisements
Track Severe Weather on mobile